createdAt,value
2022-07-30T00:00:40.120Z,101152.28
2022-07-30T00:03:08.927Z,101150.44
2022-07-30T00:05:39.289Z,101129.56
2022-07-30T00:08:08.202Z,101154.00
2022-07-30T00:10:36.998Z,101149.16
2022-07-30T00:13:05.925Z,101152.31
2022-07-30T00:15:34.844Z,101160.78
2022-07-30T00:18:03.703Z,101157.09
2022-07-30T00:20:33.512Z,101159.28
2022-07-30T00:23:05.898Z,101154.53
2022-07-30T00:25:35.019Z,101132.59
2022-07-30T00:28:03.883Z,101154.78
2022-07-30T00:30:32.799Z,101052.56
2022-07-30T00:33:01.693Z,101161.31
2022-07-30T00:35:30.742Z,101162.41
2022-07-30T00:37:59.662Z,101168.94
2022-07-30T00:40:30.203Z,101166.88
2022-07-30T00:42:59.031Z,101166.03
2022-07-30T00:45:28.925Z,101167.78
2022-07-30T00:47:59.011Z,101165.03
2022-07-30T00:50:27.840Z,101162.97
2022-07-30T00:52:56.687Z,101164.22
2022-07-30T00:55:25.500Z,101158.78
2022-07-30T00:57:55.787Z,101154.63
2022-07-30T01:00:25.572Z,101162.16
2022-07-30T01:02:54.494Z,101152.09
2022-07-30T01:05:23.315Z,101149.16
2022-07-30T01:07:52.646Z,101146.00
2022-07-30T01:10:21.575Z,101157.56
2022-07-30T01:12:52.880Z,101146.88
2022-07-30T01:15:23.675Z,101150.44
2022-07-30T01:17:56.860Z,101152.53
2022-07-30T01:20:29.139Z,101154.22
2022-07-30T01:23:06.773Z,101160.50
2022-07-30T01:25:56.850Z,101155.28
2022-07-30T01:28:29.360Z,101160.09
2022-07-30T01:31:00.657Z,101161.19
2022-07-30T01:33:30.174Z,101162.44
2022-07-30T01:36:00.751Z,101162.00
2022-07-30T01:38:35.262Z,101154.69
2022-07-30T01:41:08.177Z,101012.16
2022-07-30T01:43:38.069Z,101135.88
2022-07-30T01:46:08.727Z,101158.25
2022-07-30T01:48:41.899Z,101155.97
2022-07-30T01:51:14.066Z,101155.13
2022-07-30T01:53:49.613Z,101155.34
2022-07-30T01:56:25.160Z,101109.66
2022-07-30T01:58:57.180Z,101147.38
2022-07-30T02:01:28.151Z,101135.84
2022-07-30T02:04:04.245Z,101140.47
2022-07-30T02:06:41.675Z,101139.84
2022-07-30T02:09:17.045Z,101137.28
2022-07-30T02:12:09.659Z,101102.75
2022-07-30T02:14:43.135Z,101132.91
2022-07-30T02:17:18.514Z,101139.41
2022-07-30T02:19:51.247Z,101142.53
2022-07-30T02:22:23.434Z,101129.53
2022-07-30T02:24:53.598Z,101133.72
2022-07-30T02:27:28.842Z,101131.84
2022-07-30T02:30:00.703Z,101132.25
2022-07-30T02:32:39.229Z,101144.16
2022-07-30T02:35:11.990Z,101135.81
2022-07-30T02:37:44.176Z,101106.91
2022-07-30T02:40:17.232Z,101140.59
2022-07-30T02:42:50.640Z,101145.84
2022-07-30T02:45:25.405Z,101140.19
2022-07-30T02:47:59.242Z,101140.81
2022-07-30T02:50:30.072Z,101141.47
2022-07-30T02:53:01.323Z,101119.06
2022-07-30T02:55:33.141Z,101101.47
2022-07-30T02:58:05.652Z,101144.16
2022-07-30T03:00:36.051Z,101138.34
2022-07-30T03:03:08.135Z,101138.13
2022-07-30T03:05:41.085Z,101142.94
2022-07-30T03:08:11.790Z,101138.34
2022-07-30T03:10:42.841Z,101137.91
2022-07-30T03:13:14.907Z,101131.41
2022-07-30T03:15:49.147Z,101026.25
2022-07-30T03:18:21.297Z,101135.38
2022-07-30T03:20:55.010Z,101140.19
2022-07-30T03:23:25.382Z,101106.28
2022-07-30T03:25:58.488Z,101137.47
2022-07-30T03:28:30.983Z,101126.78
2022-07-30T03:31:01.214Z,101131.19
2022-07-30T03:33:38.909Z,101129.94
2022-07-30T03:36:09.607Z,101110.03
2022-07-30T03:38:39.294Z,101114.88
2022-07-30T03:41:10.239Z,101094.56
2022-07-30T03:43:41.999Z,101130.59
2022-07-30T03:46:12.543Z,101132.69
2022-07-30T03:48:46.214Z,101137.91
2022-07-30T03:51:15.334Z,101132.25
2022-07-30T03:53:44.768Z,101133.09
2022-07-30T03:56:32.331Z,101142.72
2022-07-30T03:59:11.098Z,101120.09
2022-07-30T04:01:42.970Z,101130.31
2022-07-30T04:04:26.525Z,101137.84
2022-07-30T04:06:56.459Z,101145.13
2022-07-30T04:09:25.263Z,101140.47
2022-07-30T04:11:54.281Z,101144.44
2022-07-30T04:14:29.363Z,101150.47
2022-07-30T04:17:04.149Z,101151.13
2022-07-30T04:19:39.063Z,101142.75
2022-07-30T04:22:12.699Z,101149.66
2022-07-30T04:24:43.630Z,101145.47
2022-07-30T04:27:12.944Z,101150.50
2022-07-30T04:29:43.486Z,101158.31
2022-07-30T04:32:13.082Z,101161.06
2022-07-30T04:34:48.979Z,101152.91
2022-07-30T04:37:24.001Z,101158.34
2022-07-30T04:39:55.167Z,101159.38
2022-07-30T04:42:24.163Z,101162.53
2022-07-30T04:45:04.150Z,101168.81
2022-07-30T04:47:48.235Z,101022.75
2022-07-30T04:50:56.685Z,101179.91
2022-07-30T04:53:27.339Z,101180.09
2022-07-30T04:56:01.535Z,101154.03
2022-07-30T04:58:33.358Z,101187.22
2022-07-30T05:01:05.339Z,101188.91
2022-07-30T05:03:36.432Z,101148.44
2022-07-30T05:06:06.955Z,101190.84
2022-07-30T05:08:40.261Z,101151.69
2022-07-30T05:11:13.850Z,101193.59
2022-07-30T05:13:46.105Z,101189.66
2022-07-30T05:16:19.264Z,101196.38
2022-07-30T05:18:49.486Z,101191.97
2022-07-30T05:21:18.510Z,101195.97
2022-07-30T05:23:50.826Z,101194.28
2022-07-30T05:26:42.695Z,101192.81
2022-07-30T05:29:14.965Z,101184.63
2022-07-30T05:31:56.926Z,101193.66
2022-07-30T05:34:32.363Z,101193.19
2022-07-30T05:37:01.809Z,101188.38
2022-07-30T05:39:31.226Z,101191.50
2022-07-30T05:42:36.550Z,101188.91
2022-07-30T05:45:05.778Z,101193.91
2022-07-30T05:47:36.129Z,101194.81
2022-07-30T05:50:05.572Z,101194.03
2022-07-30T05:52:34.859Z,101196.19
2022-07-30T05:55:15.114Z,101197.31
2022-07-30T05:58:10.185Z,101201.25
2022-07-30T06:00:39.122Z,101201.81
2022-07-30T06:03:09.639Z,101196.22
2022-07-30T06:05:56.984Z,101199.22
2022-07-30T06:08:25.855Z,101200.63
2022-07-30T06:10:54.606Z,101196.03
2022-07-30T06:13:23.825Z,101201.59
2022-07-30T06:15:52.804Z,101195.13
2022-07-30T06:18:23.512Z,101190.66
2022-07-30T06:20:55.975Z,101193.81
2022-07-30T06:23:53.669Z,101192.31
2022-07-30T06:26:41.157Z,101186.84
2022-07-30T06:29:10.504Z,101195.09
2022-07-30T06:31:42.536Z,101186.16
2022-07-30T06:34:15.156Z,101186.41
2022-07-30T06:36:44.820Z,101191.00
2022-07-30T06:39:56.091Z,101194.44
2022-07-30T06:42:21.330Z,101196.69
2022-07-30T06:45:11.634Z,101196.69
2022-07-30T06:47:59.920Z,101190.88
2022-07-30T06:50:33.123Z,101202.97
2022-07-30T06:53:02.084Z,101201.47
2022-07-30T06:55:45.644Z,101204.19
2022-07-30T06:58:14.497Z,101207.41
2022-07-30T07:01:11.060Z,101206.59
2022-07-30T07:03:41.957Z,101212.34
2022-07-30T07:06:12.558Z,101207.16
2022-07-30T07:08:41.303Z,101212.81
2022-07-30T07:11:12.743Z,101201.38
2022-07-30T07:13:48.171Z,101199.59
2022-07-30T07:16:26.393Z,101214.09
2022-07-30T07:18:57.261Z,101207.81
2022-07-30T07:21:27.699Z,101206.84
2022-07-30T07:23:57.408Z,101209.09
2022-07-30T07:26:44.712Z,101213.25
2022-07-30T07:29:13.676Z,101208.03
2022-07-30T07:32:06.273Z,101203.50
2022-07-30T07:34:31.588Z,101203.03
2022-07-30T07:37:02.384Z,101212.09
2022-07-30T07:39:31.454Z,101208.75
2022-07-30T07:42:00.846Z,101211.16
2022-07-30T07:44:32.615Z,101214.69
2022-07-30T07:47:02.171Z,101211.81
2022-07-30T07:49:35.058Z,101211.00
2022-07-30T07:52:05.993Z,101213.22
2022-07-30T07:54:34.764Z,101205.50
2022-07-30T07:57:04.772Z,101192.22
2022-07-30T07:59:40.957Z,101222.28
2022-07-30T08:02:21.256Z,101217.38
2022-07-30T08:05:10.818Z,101222.66
2022-07-30T08:07:56.205Z,101225.78
2022-07-30T08:10:43.624Z,101226.00
2022-07-30T08:13:52.376Z,101219.03
2022-07-30T08:16:40.691Z,101213.34
2022-07-30T08:19:15.167Z,101220.81
2022-07-30T08:21:53.208Z,101220.44
2022-07-30T08:24:23.549Z,101222.28
2022-07-30T08:26:52.426Z,101209.38
2022-07-30T08:29:21.238Z,101204.00
2022-07-30T08:31:50.476Z,101216.66
2022-07-30T08:34:20.743Z,101210.69
2022-07-30T08:36:57.433Z,101212.25
2022-07-30T08:39:28.503Z,101207.34
2022-07-30T08:41:57.746Z,101209.88
2022-07-30T08:44:27.738Z,101171.50
2022-07-30T08:46:58.925Z,101211.28
2022-07-30T08:49:51.203Z,101209.59
2022-07-30T08:52:24.965Z,101207.13
2022-07-30T08:55:03.363Z,101214.84
2022-07-30T08:57:35.103Z,101160.44
2022-07-30T09:00:07.503Z,101211.28
2022-07-30T09:02:36.717Z,101214.88
2022-07-30T09:05:07.780Z,101210.53
2022-07-30T09:07:37.876Z,101173.28
2022-07-30T09:10:13.540Z,101213.63
2022-07-30T09:12:43.802Z,101222.19
2022-07-30T09:15:15.913Z,101156.13
2022-07-30T09:17:50.275Z,101209.72
2022-07-30T09:20:19.955Z,101216.66
2022-07-30T09:22:50.043Z,101206.88
2022-07-30T09:25:47.914Z,101218.50
2022-07-30T09:28:36.107Z,101204.09
2022-07-30T09:31:14.092Z,101203.25
2022-07-30T09:34:01.586Z,101206.78
2022-07-30T09:37:01.144Z,101207.63
2022-07-30T09:39:34.760Z,101205.28
2022-07-30T09:42:28.540Z,101204.31
2022-07-30T09:45:08.191Z,101199.81
2022-07-30T09:47:39.219Z,101178.19
2022-07-30T09:50:09.755Z,101196.84
2022-07-30T09:52:43.944Z,101192.38
2022-07-30T09:55:31.038Z,101189.16
2022-07-30T09:58:03.150Z,101176.53
2022-07-30T10:00:34.100Z,101185.88
2022-07-30T10:03:41.651Z,101181.47
2022-07-30T10:06:35.605Z,101187.84
2022-07-30T10:09:27.212Z,101180.44
2022-07-30T10:11:58.728Z,101175.03
2022-07-30T10:14:34.350Z,101163.94
2022-07-30T10:17:11.789Z,101122.63
2022-07-30T10:19:43.566Z,101172.69
2022-07-30T10:22:50.531Z,101164.19
2022-07-30T10:25:49.439Z,101156.13
2022-07-30T10:28:44.421Z,101162.03
2022-07-30T10:31:48.801Z,101154.75
2022-07-30T10:34:06.562Z,101143.56
2022-07-30T10:36:37.261Z,101149.66
2022-07-30T10:39:09.187Z,101134.53
2022-07-30T10:41:53.999Z,101146.69
2022-07-30T10:44:52.990Z,101147.78
2022-07-30T10:47:29.760Z,101139.56
2022-07-30T10:50:15.691Z,101142.78
2022-07-30T10:52:50.807Z,101157.00
2022-07-30T10:55:37.497Z,101130.53
2022-07-30T10:58:10.446Z,101139.00
2022-07-30T11:01:00.788Z,101134.06
2022-07-30T11:03:41.592Z,101126.34
2022-07-30T11:06:31.755Z,101127.91
2022-07-30T11:09:00.789Z,101126.03
2022-07-30T11:12:04.879Z,101128.94
2022-07-30T11:15:07.569Z,101113.03
2022-07-30T11:18:12.835Z,101112.53
2022-07-30T11:20:48.710Z,101108.09
2022-07-30T11:23:40.251Z,101108.25
2022-07-30T11:26:14.482Z,101097.03
2022-07-30T11:28:49.605Z,101096.13
2022-07-30T11:31:55.507Z,101067.22
2022-07-30T11:34:29.769Z,101103.88
2022-07-30T11:37:18.459Z,101013.44
2022-07-30T11:40:13.977Z,101088.94
2022-07-30T11:42:43.927Z,101091.97
2022-07-30T11:45:31.195Z,101073.06
2022-07-30T11:48:03.824Z,101087.63
2022-07-30T11:50:34.919Z,101079.06
2022-07-30T11:53:06.853Z,101072.91
2022-07-30T11:55:39.108Z,101075.75
2022-07-30T11:58:09.935Z,101064.94
2022-07-30T12:00:41.277Z,101045.19
2022-07-30T12:03:12.299Z,101063.59
2022-07-30T12:05:42.212Z,101058.78
2022-07-30T12:08:31.702Z,101057.50
2022-07-30T12:11:03.502Z,101052.09
2022-07-30T12:13:45.370Z,101045.84
2022-07-30T12:16:18.663Z,101053.53
2022-07-30T12:18:48.560Z,101054.00
2022-07-30T12:21:18.099Z,101045.47
2022-07-30T12:23:57.721Z,101032.22
2022-07-30T12:26:29.125Z,101039.19
2022-07-30T12:29:00.944Z,101032.16
2022-07-30T12:31:30.204Z,101021.19
2022-07-30T12:34:00.653Z,101029.13
2022-07-30T12:36:32.339Z,101030.56
2022-07-30T12:39:03.891Z,101021.44
2022-07-30T12:41:47.111Z,101020.28
2022-07-30T12:44:37.793Z,101014.22
2022-07-30T12:47:07.807Z,101009.97
2022-07-30T12:49:48.597Z,100997.63
2022-07-30T12:52:28.250Z,100974.78
2022-07-30T12:55:10.252Z,100998.69
2022-07-30T12:58:02.974Z,100992.47
2022-07-30T13:00:52.553Z,100978.78
2022-07-30T13:03:23.033Z,100994.25
2022-07-30T13:05:55.668Z,100980.31
2022-07-30T13:08:53.127Z,100976.53
2022-07-30T13:11:24.859Z,100971.78
2022-07-30T13:13:54.521Z,100966.38
2022-07-30T13:16:23.558Z,100970.66
2022-07-30T13:18:52.511Z,100972.38
2022-07-30T13:21:21.509Z,100959.50
2022-07-30T13:23:50.482Z,100956.84
2022-07-30T13:26:19.498Z,100958.03
2022-07-30T13:28:50.027Z,100950.13
2022-07-30T13:31:19.647Z,100961.16
2022-07-30T13:33:48.526Z,100961.50
2022-07-30T13:36:18.047Z,100954.44
2022-07-30T13:38:52.063Z,100947.84
2022-07-30T13:41:21.586Z,100951.53
2022-07-30T13:43:51.982Z,100947.13
2022-07-30T13:46:21.010Z,100936.47
2022-07-30T13:48:50.245Z,100930.94
2022-07-30T13:51:19.247Z,100931.09
2022-07-30T13:53:48.195Z,100931.31
2022-07-30T13:56:19.715Z,100923.22
2022-07-30T13:58:48.993Z,100929.97
2022-07-30T14:01:19.497Z,100917.94
2022-07-30T14:03:50.578Z,100918.28
2022-07-30T14:06:20.012Z,100910.06
2022-07-30T14:08:48.968Z,100903.19
2022-07-30T14:11:18.150Z,100905.31
2022-07-30T14:13:47.338Z,100927.16
2022-07-30T14:16:42.437Z,100899.91
2022-07-30T14:19:07.467Z,100918.03
2022-07-30T14:21:36.510Z,100914.28
2022-07-30T14:24:07.993Z,100907.91
2022-07-30T14:26:37.482Z,100904.97
2022-07-30T14:29:06.593Z,100908.25
2022-07-30T14:31:36.135Z,100905.63
2022-07-30T14:34:06.799Z,100905.44
2022-07-30T14:36:37.558Z,100902.31
2022-07-30T14:39:07.620Z,100898.84
2022-07-30T14:41:37.574Z,100896.84
2022-07-30T14:44:09.963Z,100901.31
2022-07-30T14:46:38.946Z,100902.16
2022-07-30T14:49:24.155Z,100889.97
2022-07-30T14:51:53.650Z,100893.88
2022-07-30T14:54:22.828Z,100895.16
2022-07-30T14:56:57.746Z,100892.00
2022-07-30T14:59:28.159Z,100899.69
2022-07-30T15:01:57.689Z,100891.31
2022-07-30T15:04:28.327Z,100892.81
2022-07-30T15:06:57.580Z,100889.00
2022-07-30T15:09:26.426Z,100895.84
2022-07-30T15:12:10.972Z,100898.13
2022-07-30T15:14:41.047Z,100872.84
2022-07-30T15:17:10.148Z,100887.22
2022-07-30T15:19:50.387Z,100888.81
2022-07-30T15:22:20.301Z,100892.88
2022-07-30T15:24:50.360Z,100891.59
2022-07-30T15:27:22.340Z,100890.91
2022-07-30T15:29:53.938Z,100881.09
2022-07-30T15:32:22.777Z,100876.03
2022-07-30T15:34:53.292Z,100886.16
2022-07-30T15:37:23.474Z,100881.22
2022-07-30T15:39:53.724Z,100878.88
2022-07-30T15:42:22.660Z,100877.53
2022-07-30T15:45:15.453Z,100878.22
2022-07-30T15:47:40.785Z,100878.03
2022-07-30T15:50:12.016Z,100879.97
2022-07-30T15:52:41.008Z,100879.34
2022-07-30T15:55:10.926Z,100883.41
2022-07-30T15:57:40.831Z,100878.25
2022-07-30T16:00:12.829Z,100877.53
2022-07-30T16:02:43.920Z,100878.78
2022-07-30T16:05:14.487Z,100870.28
2022-07-30T16:07:43.653Z,100878.94
2022-07-30T16:10:15.834Z,100876.91
2022-07-30T16:12:44.918Z,100867.53
2022-07-30T16:15:14.314Z,100868.16
2022-07-30T16:17:46.232Z,100870.75
2022-07-30T16:20:18.141Z,100870.06
2022-07-30T16:22:48.034Z,100866.03
2022-07-30T16:25:18.222Z,100867.59
2022-07-30T16:27:47.277Z,100865.53
2022-07-30T16:30:16.218Z,100858.16
2022-07-30T16:32:45.294Z,100861.88
2022-07-30T16:35:14.334Z,100863.63
2022-07-30T16:37:44.805Z,100863.41
2022-07-30T16:40:14.240Z,100864.03
2022-07-30T16:42:43.262Z,100855.19
2022-07-30T16:45:12.770Z,100869.09
2022-07-30T16:47:41.780Z,100859.69
2022-07-30T16:50:11.670Z,100854.56
2022-07-30T16:52:40.625Z,100863.53
2022-07-30T16:55:11.739Z,100855.81
2022-07-30T16:57:40.730Z,100854.47
2022-07-30T17:00:12.489Z,100861.03
2022-07-30T17:02:41.525Z,100850.97
2022-07-30T17:05:13.769Z,100848.38
2022-07-30T17:07:43.286Z,100852.31
2022-07-30T17:10:13.818Z,100848.50
2022-07-30T17:12:50.867Z,100853.34
2022-07-30T17:15:20.249Z,100850.41
2022-07-30T17:18:01.342Z,100852.16
2022-07-30T17:20:30.491Z,100850.94
2022-07-30T17:22:59.457Z,100852.38
2022-07-30T17:25:30.049Z,100856.59
2022-07-30T17:28:00.366Z,100852.56
2022-07-30T17:30:30.179Z,100858.41
2022-07-30T17:32:59.462Z,100864.97
2022-07-30T17:35:28.494Z,100858.16
2022-07-30T17:37:57.377Z,100866.78
2022-07-30T17:40:31.656Z,100857.94
2022-07-30T17:43:04.906Z,100866.56
2022-07-30T17:45:34.615Z,100872.19
2022-07-30T17:48:03.712Z,100878.72
2022-07-30T17:50:33.030Z,100875.31
2022-07-30T17:53:03.695Z,100863.84
2022-07-30T17:55:35.287Z,100880.72
2022-07-30T17:58:06.471Z,100873.06
2022-07-30T18:00:36.164Z,100879.50
2022-07-30T18:03:05.641Z,100874.31
2022-07-30T18:05:34.679Z,100882.19
2022-07-30T18:08:03.592Z,100875.66
2022-07-30T18:10:32.631Z,100885.50
2022-07-30T18:13:25.818Z,100891.94
2022-07-30T18:15:52.942Z,100880.38
2022-07-30T18:18:22.011Z,100877.47
2022-07-30T18:20:50.959Z,100895.19
2022-07-30T18:23:20.514Z,100904.38
2022-07-30T18:25:54.241Z,100909.44
2022-07-30T18:28:23.741Z,100907.66
2022-07-30T18:30:55.354Z,100913.88
2022-07-30T18:33:24.402Z,100862.97
2022-07-30T18:35:54.291Z,100920.34
2022-07-30T18:38:23.277Z,100924.06
2022-07-30T18:40:59.182Z,100920.56
2022-07-30T18:43:29.246Z,100920.59
2022-07-30T18:46:02.766Z,100916.75
2022-07-30T18:48:31.822Z,100917.66
2022-07-30T18:51:00.882Z,100922.69
2022-07-30T18:53:29.909Z,100925.47
2022-07-30T18:55:59.374Z,100939.06
2022-07-30T18:58:28.330Z,100941.59
2022-07-30T19:01:00.252Z,100943.91
2022-07-30T19:03:29.262Z,100940.34
2022-07-30T19:05:58.306Z,100944.25
2022-07-30T19:08:27.937Z,100940.75
2022-07-30T19:10:56.817Z,100951.53
2022-07-30T19:13:26.377Z,100954.13
2022-07-30T19:15:56.203Z,100838.31
2022-07-30T19:18:26.829Z,100958.88
2022-07-30T19:20:55.749Z,100961.72
2022-07-30T19:23:24.734Z,100958.94
2022-07-30T19:25:55.982Z,100964.47
2022-07-30T19:28:25.594Z,100964.81
2022-07-30T19:30:54.419Z,100981.38
2022-07-30T19:33:24.327Z,100975.63
2022-07-30T19:35:54.581Z,100985.53
2022-07-30T19:38:23.952Z,100994.34
2022-07-30T19:40:53.516Z,100995.47
2022-07-30T19:43:23.927Z,101001.53
2022-07-30T19:45:53.268Z,101011.72
2022-07-30T19:48:28.903Z,101018.31
2022-07-30T19:51:02.044Z,101016.06
2022-07-30T19:53:34.391Z,101016.31
2022-07-30T19:56:08.424Z,101023.44
2022-07-30T19:58:40.519Z,101033.63
2022-07-30T20:01:10.021Z,101042.66
2022-07-30T20:03:39.277Z,101042.84
2022-07-30T20:06:14.506Z,101044.97
2022-07-30T20:08:44.562Z,101053.94
2022-07-30T20:11:21.130Z,101056.25
2022-07-30T20:14:03.558Z,101064.69
2022-07-30T20:16:32.498Z,101066.25
2022-07-30T20:19:03.299Z,101067.75
2022-07-30T20:21:57.513Z,101072.25
2022-07-30T20:24:25.624Z,101084.19
2022-07-30T20:26:54.488Z,101093.41
2022-07-30T20:29:23.879Z,101102.34
2022-07-30T20:31:53.630Z,101100.34
2022-07-30T20:34:25.958Z,101104.81
2022-07-30T20:36:56.781Z,101103.75
2022-07-30T20:39:26.466Z,101099.63
2022-07-30T20:42:08.074Z,101108.78
2022-07-30T20:44:38.230Z,101109.09
2022-07-30T20:47:08.332Z,101108.66
2022-07-30T20:49:37.539Z,101116.84
2022-07-30T20:52:10.849Z,101115.91
2022-07-30T20:54:45.034Z,101108.06
2022-07-30T20:57:15.649Z,101113.72
2022-07-30T20:59:48.922Z,101114.69
2022-07-30T21:02:18.959Z,101118.16
2022-07-30T21:04:59.809Z,101120.31
2022-07-30T21:07:36.622Z,101116.50
2022-07-30T21:10:07.377Z,101119.00
2022-07-30T21:12:37.242Z,101122.47
2022-07-30T21:17:57.763Z,101125.66
2022-07-30T21:20:27.996Z,101120.53
2022-07-30T21:23:04.931Z,101108.09
2022-07-30T21:25:34.483Z,101121.91
2022-07-30T21:28:27.544Z,101127.38
2022-07-30T21:30:57.151Z,101123.06
2022-07-30T21:33:30.957Z,101129.22
2022-07-30T21:36:01.207Z,101122.88
2022-07-30T21:38:32.157Z,101133.88
2022-07-30T21:41:02.609Z,101108.56
2022-07-30T21:43:39.707Z,101126.69
2022-07-30T21:46:11.130Z,101126.94
2022-07-30T21:48:40.113Z,101125.63
2022-07-30T21:51:10.057Z,101121.78
2022-07-30T21:53:45.030Z,101123.47
2022-07-30T21:56:16.290Z,101122.03
2022-07-30T21:58:46.142Z,101133.50
2022-07-30T22:01:22.574Z,101128.28
2022-07-30T22:04:03.169Z,101135.44
2022-07-30T22:06:37.762Z,101138.66
2022-07-30T22:09:19.565Z,101133.28
2022-07-30T22:12:09.245Z,101136.94
2022-07-30T22:14:39.402Z,101138.63
2022-07-30T22:17:22.463Z,101147.69
2022-07-30T22:19:54.790Z,101140.78
2022-07-30T22:22:27.214Z,101141.34
2022-07-30T22:25:00.037Z,101133.94
2022-07-30T22:27:39.392Z,101133.94
2022-07-30T22:30:11.272Z,101134.53
2022-07-30T22:32:43.134Z,101135.28
2022-07-30T22:35:13.146Z,101136.69
2022-07-30T22:37:46.041Z,101141.84
2022-07-30T22:40:16.441Z,101146.50
2022-07-30T22:42:46.716Z,101147.81
2022-07-30T22:45:45.770Z,101159.63
2022-07-30T22:48:11.081Z,101159.28
2022-07-30T22:50:40.915Z,101169.53
2022-07-30T22:53:56.659Z,101171.47
2022-07-30T22:56:00.773Z,101176.59
2022-07-30T22:58:30.375Z,101180.28
2022-07-30T23:00:59.237Z,101179.38
2022-07-30T23:03:28.121Z,101186.09
2022-07-30T23:05:57.290Z,101188.22
2022-07-30T23:08:30.191Z,101199.69
2022-07-30T23:11:01.247Z,101192.91
2022-07-30T23:12:32.128Z,101119.25
2022-07-30T23:13:30.891Z,101192.84
2022-07-30T23:16:00.016Z,101183.19
2022-07-30T23:18:29.131Z,101188.31
2022-07-30T23:21:00.427Z,101181.31
2022-07-30T23:23:30.873Z,101179.06
2022-07-30T23:26:04.542Z,101189.63
2022-07-30T23:28:33.633Z,101191.31
2022-07-30T23:31:03.690Z,101188.31
2022-07-30T23:33:33.214Z,101193.59
2022-07-30T23:36:02.127Z,101190.84
2022-07-30T23:38:31.014Z,101176.16
2022-07-30T23:41:02.158Z,101183.56
2022-07-30T23:43:32.858Z,101182.13
2022-07-30T23:46:01.807Z,101192.03
2022-07-30T23:48:31.888Z,101193.09
2022-07-30T23:51:00.854Z,101194.66
2022-07-30T23:53:29.727Z,101191.78
2022-07-30T23:55:58.880Z,101194.75
2022-07-30T23:58:27.691Z,101196.34
